Hovedside
METAR-TAF:

METAR-TAF

Lufthavner :

Hagåtña, Guam, USA

Antonio B. Won Pat internasjonale lufthavn

breddegrad: 13-29N, lengdegrad: 144-48E, høyde over havet: 91 m

Gjeldene værobservasjon

Denne rapporten ble laget for 27 minutter siden, klokken 01:54 UTC
Vind 18 kt fra Øst med vindkast opp mot 26 kt
Temperatur 31°C
Luftfuktighet 66%
Trykk 1011 hPa
Sikt: 16.1 km
Få skyer i en høyde av 2400 ft

METAR: PGUM 220154Z 09018G26KT 10SM FEW024 31/24 A2985 RMK AO2 PK WND 09026/0154 SLP099 T03060239

Tid: 12:21 (02:21 UTC)

Varsel

Denne rapporten ble laget for 3 timer og 0 minutter siden, klokken 23:21 UTC
Varsel gyldig fra 22. klokken 00 UTC til 23. klokken 06 UTC
Vind 16 kt fra Øst med vindkast opp mot 26 kt
Sikt: 10 km
Få skyer i en høyde av 2200 ft
Spredte skyer i en høyde av 3000 ft
Fra 22. klokken 0800 UTC
Vind 10 kt fra Øst-nordøst
Sikt: 10 km
Spredte skyer i en høyde av 2000 ft

TAF: PGUM 212321Z 2200/2306 08016G26KT P6SM FEW022 SCT030 FM220800 07010KT P6SM SCT020

Værobservasjoner og værvarsel for over 4000 flyplasser (METAR- og TAF-rapporter).

Tilgjengelige stasjoner er representert av de røde og gule prikkene på kartet.

Hold musepekeren over prikken for å se navnet på stasjonen.

Klikk så for å se værobservasjoner og -varsler.

For å forandre kartet kan du klikke på den grønne knappen med svart kryss for å zoome inn, på den grønne knappen med strek for å zoome ut, eller på de grønne pilene for å se tilstøtende kart.


METAR-TAF: